Aviation Digital Data Service (ADDS)

Output produced by METARs form (0633 UTC 25 April 2015)
found at http://aviationweather.gov/adds/metars/
 
KBUF 250527Z 2506/2606 29003KT P6SM SCT200 
     FM251400 30007KT P6SM SCT200 
     FM251800 25008KT P6SM SCT200 
     FM252300 36005KT P6SM SCT200